Orbital elements of FENGYUN 1C DEB
| Launched | 9 May 1999 |
| Flight ended | – |
| Launch site | Taiyuan Space Center, PRC |
| Owner | People's Republic of China |
| NORAD ID | 35243 |
| Date fetched |
Epoch osculation |
Inc. [°] |
Ecc. | RA asc node [hr] |
Arg Peri. [°] |
Mean anom [°] |
Mean motion [rev/day] |
Abs. mag |
| Date fetched |
Epoch osculation |
Inc. [°] |
Ecc. | RA asc node [hr] |
Arg Peri. [°] |
Mean anom [°] |
Mean motion [rev/day] |
Abs. mag |
| 2026 May 05 17:57 | 2026 May 04 05:26:48 | 98.8702 | 0.00586 | 15.0388 | 159.0655 | 201.2979 | 14.93748 | – |
| 2026 May 04 17:57 | 2026 Apr 30 13:01:07 | 98.8705 | 0.00589 | 14.7617 | 170.9450 | 201.2979 | 14.93748 | – |
| 2026 May 03 17:57 | 2026 Apr 30 13:01:07 | 98.8705 | 0.00589 | 14.7617 | 170.9450 | 201.2979 | 14.93748 | – |
| 2026 May 02 17:57 | 2026 Apr 30 13:01:07 | 98.8705 | 0.00589 | 14.7617 | 170.9450 | 201.2979 | 14.93748 | – |
| 2026 May 01 17:56 | 2026 Apr 30 13:01:07 | 98.8705 | 0.00589 | 14.7617 | 170.9450 | 201.2979 | 14.93748 | – |
| 2026 Apr 30 17:56 | 2026 Apr 30 13:01:07 | 98.8705 | 0.00589 | 14.7617 | 170.9450 | 201.2979 | 14.93748 | – |
| 2026 Apr 29 17:57 | 2026 Apr 22 05:36:42 | 98.8667 | 0.00590 | 14.1372 | 196.9238 | 201.2979 | 14.93748 | – |
| 2026 Apr 28 17:56 | 2026 Apr 22 05:36:42 | 98.8667 | 0.00590 | 14.1372 | 196.9238 | 201.2979 | 14.93748 | – |
| 2026 Apr 27 17:58 | 2026 Apr 22 05:36:42 | 98.8667 | 0.00590 | 14.1372 | 196.9238 | 201.2979 | 14.93748 | – |
| 2026 Apr 26 17:58 | 2026 Apr 22 05:36:42 | 98.8667 | 0.00590 | 14.1372 | 196.9238 | 201.2979 | 14.93748 | – |
| 2026 Apr 25 17:58 | 2026 Apr 22 05:36:42 | 98.8667 | 0.00590 | 14.1372 | 196.9238 | 201.2979 | 14.93748 | – |
| 2026 Apr 24 17:59 | 2026 Apr 22 05:36:42 | 98.8667 | 0.00590 | 14.1372 | 196.9238 | 201.2979 | 14.93748 | – |
| 2026 Apr 23 17:57 | 2026 Apr 18 05:06:30 | 98.8674 | 0.00590 | 13.8353 | 209.6053 | 201.2979 | 14.93748 | – |
| 2026 Apr 22 17:57 | 2026 Apr 18 05:06:30 | 98.8674 | 0.00590 | 13.8353 | 209.6053 | 201.2979 | 14.93748 | – |
| 2026 Apr 21 17:57 | 2026 Apr 18 05:06:30 | 98.8674 | 0.00590 | 13.8353 | 209.6053 | 201.2979 | 14.93748 | – |
| 2026 Apr 20 17:57 | 2026 Apr 18 05:06:30 | 98.8674 | 0.00590 | 13.8353 | 209.6053 | 201.2979 | 14.93748 | – |
| 2026 Apr 19 17:58 | 2026 Apr 18 05:06:30 | 98.8674 | 0.00590 | 13.8353 | 209.6053 | 201.2979 | 14.93748 | – |
| 2026 Apr 18 17:56 | 2026 Apr 12 17:12:31 | 98.8681 | 0.00593 | 13.4226 | 227.6838 | 201.2979 | 14.93748 | – |
| 2026 Apr 16 17:57 | 2026 Apr 12 17:12:31 | 98.8681 | 0.00593 | 13.4226 | 227.6838 | 201.2979 | 14.93748 | – |
| 2026 Apr 14 17:57 | 2026 Apr 12 17:12:31 | 98.8681 | 0.00593 | 13.4226 | 227.6838 | 201.2979 | 14.93748 | – |
| 2026 Apr 13 17:57 | 2026 Apr 12 17:12:31 | 98.8681 | 0.00593 | 13.4226 | 227.6838 | 201.2979 | 14.93748 | – |
| 2026 Apr 12 17:57 | 2026 Apr 07 00:28:19 | 98.8684 | 0.00583 | 12.9948 | 245.5495 | 201.2979 | 14.93748 | – |
| 2026 Apr 11 17:57 | 2026 Apr 07 00:28:19 | 98.8684 | 0.00583 | 12.9948 | 245.5495 | 201.2979 | 14.93748 | – |
| 2026 Apr 10 17:58 | 2026 Apr 07 00:28:19 | 98.8684 | 0.00583 | 12.9948 | 245.5495 | 201.2979 | 14.93748 | – |
| 2026 Apr 09 18:01 | 2026 Apr 07 00:28:19 | 98.8684 | 0.00583 | 12.9948 | 245.5495 | 201.2979 | 14.93748 | – |
| 2026 Apr 08 17:57 | 2026 Apr 07 00:28:19 | 98.8684 | 0.00583 | 12.9948 | 245.5495 | 201.2979 | 14.93748 | – |